This is the latest recevied weather packets stored in our database for station/object N7BTW-13. If no packets are shown the sender has not sent any weather packets the latest 10 day(s).
| Time | Temp. | Humidity | Pressure | Rain* | Wind** | Luminosity | Snow |
|---|---|---|---|---|---|---|---|
| 1777522808 | 13.89° C | 68% | 1020.5 hPa | 0 mm | - | - | - |
| 1777522207 | 14.44° C | 69% | 1020.4 hPa | 0 mm | - | - | - |
| 1777521609 | 14.44° C | 69% | 1020.3 hPa | 0 mm | - | - | - |
| 1777521006 | 15° C | 66% | 1020.2 hPa | 0 mm | - | - | - |
| 1777520407 | 15.56° C | 63% | 1020.1 hPa | 0 mm | - | - | - |
| 1777519807 | 16.67° C | 61% | 1020.1 hPa | 0 mm | - | - | - |
| 1777519207 | 17.22° C | 58% | 1020 hPa | 0 mm | - | - | - |
| 1777518609 | 18.33° C | 58% | 1019.9 hPa | 0 mm | - | - | - |
| 1777518007 | 18.89° C | 55% | 1019.9 hPa | 0 mm | - | - | - |
| 1777517407 | 20° C | 53% | 1019.9 hPa | 0 mm | - | - | - |
| 1777516808 | 20.56° C | 52% | 1019.9 hPa | 0 mm | - | - | - |
| 1777516207 | 21.11° C | 50% | 1019.8 hPa | 0 mm | - | - | - |
| 1777515609 | 21.67° C | 50% | 1019.9 hPa | 0 mm | - | - | - |
| 1777515008 | 22.78° C | 46% | 1020 hPa | 0 mm | - | - | - |
| 1777514409 | 22.78° C | 45% | 1020 hPa | 0 mm | - | - | - |
| 1777513806 | 22.22° C | 47% | 1020.1 hPa | 0 mm | - | - | - |
| 1777513207 | 22.78° C | 46% | 1020.2 hPa | 0 mm | - | - | - |
| 1777512607 | 23.89° C | 45% | 1020.3 hPa | 0 mm | - | - | - |
| 1777512012 | 23.89° C | 44% | 1020.4 hPa | 0 mm | - | - | - |
| 1777511407 | 23.89° C | 44% | 1020.4 hPa | 0 mm | - | - | - |
| 1777510206 | 24.44° C | 42% | 1020.5 hPa | 0 mm | - | - | - |
| 1777509006 | 24.44° C | 42% | 1020.6 hPa | 0 mm | - | - | - |
| 1777498206 | 20.56° C | 47% | 1022.7 hPa | 0 mm | - | - | - |
| 1777497608 | 21.11° C | 48% | 1022.8 hPa | 0 mm | - | - | - |
| 1777480208 | 12.78° C | 70% | 1025.4 hPa | 0 mm | - | - | - |
* Rain latest hour (hover to see other rain measurements)
** Current wind speed in m/s (hover to see current wind gust speed)